LGMT/MJT METAR and TAF weather

Enter ICAO airport designator
Station Type Date Time Source
LGMT METAR 2019/06/17 04:20 UTC NOAA

LGMT 170420Z 30006KT 9999 FEW025 26/16 Q1010


Station Type Date Time Source
LGMT Decoded METAR 2019/06/17 04:20 UTC NOAA

Mytilini Airport , Greece (LGMT) 39-04N 026-36E 5M
Jun 17, 2019 - 12:20 AM EDT / 2019.06.17 0420 UTC
Wind: from the WNW (300 degrees) at 7 MPH (6 KT):0
Visibility: greater than 7 mile(s):0
Sky conditions: mostly clear
Temperature: 78 F (26 C)
Dew Point: 60 F (16 C)
Relative Humidity: 54%
Pressure (altimeter): 29.83 in. Hg (1010 hPa)
ob: LGMT 170420Z 30006KT 9999 FEW025 26/16 Q1010
cycle: 4

Station Type Date Time Source
LGMT TAF 2012/09/21 03:06 UTC NOAA

TAF LGMT 210200Z 2103/2115 VRB05KT 9999 SCT020
BECMG 2103/2105 30015KT PROB30
TEMPO 2103/2106 7000 RA SCT018 BKN030
BECMG 2107/2109 29012KT

Example: see airport list